sensor_id;sensor_type;location;lat;lon;timestamp;pressure;altitude;pressure_sealevel;temperature;humidity
37068;BME280;22982;42.848;25.468;2023-07-31T00:00:06;95783.34;;;21.63;100.00
37068;BME280;22982;42.848;25.468;2023-07-31T00:05:10;95793.88;;;21.56;100.00
37068;BME280;22982;42.848;25.468;2023-07-31T00:10:13;95787.56;;;21.49;100.00
37068;BME280;22982;42.848;25.468;2023-07-31T00:15:16;95787.75;;;21.47;100.00
37068;BME280;22982;42.848;25.468;2023-07-31T00:20:18;95771.56;;;21.40;100.00
37068;BME280;22982;42.848;25.468;2023-07-31T00:25:21;95777.41;;;21.52;100.00
37068;BME280;22982;42.848;25.468;2023-07-31T00:30:24;95770.13;;;21.21;100.00
37068;BME280;22982;42.848;25.468;2023-07-31T00:35:28;95781.47;;;21.23;100.00
37068;BME280;22982;42.848;25.468;2023-07-31T00:40:37;95778.47;;;21.18;100.00
37068;BME280;22982;42.848;25.468;2023-07-31T00:45:39;95782.97;;;21.10;100.00
37068;BME280;22982;42.848;25.468;2023-07-31T00:50:43;95728.75;;;20.53;100.00
37068;BME280;22982;42.848;25.468;2023-07-31T00:55:45;95767.19;;;21.00;100.00
37068;BME280;22982;42.848;25.468;2023-07-31T01:00:49;95757.22;;;20.77;100.00
37068;BME280;22982;42.848;25.468;2023-07-31T01:11:31;95747.06;;;20.56;100.00
37068;BME280;22982;42.848;25.468;2023-07-31T01:16:36;95754.19;;;20.56;100.00
37068;BME280;22982;42.848;25.468;2023-07-31T01:26:56;95733.03;;;20.95;100.00
37068;BME280;22982;42.848;25.468;2023-07-31T01:32:02;95724.72;;;20.90;100.00
37068;BME280;22982;42.848;25.468;2023-07-31T01:37:05;95718.38;;;20.99;100.00
37068;BME280;22982;42.848;25.468;2023-07-31T01:42:08;95710.56;;;20.98;100.00
37068;BME280;22982;42.848;25.468;2023-07-31T01:47:11;95735.69;;;20.95;100.00
37068;BME280;22982;42.848;25.468;2023-07-31T01:52:15;95724.91;;;20.72;100.00
37068;BME280;22982;42.848;25.468;2023-07-31T01:57:17;95704.28;;;20.66;100.00
37068;BME280;22982;42.848;25.468;2023-07-31T02:02:21;95704.28;;;20.66;100.00
37068;BME280;22982;42.848;25.468;2023-07-31T02:07:25;95707.94;;;20.81;100.00
37068;BME280;22982;42.848;25.468;2023-07-31T02:12:29;95718.72;;;20.88;100.00
37068;BME280;22982;42.848;25.468;2023-07-31T02:17:33;95700.25;;;20.87;100.00
37068;BME280;22982;42.848;25.468;2023-07-31T02:22:37;95689.25;;;20.90;100.00
37068;BME280;22982;42.848;25.468;2023-07-31T02:27:40;95685.59;;;20.82;100.00
37068;BME280;22982;42.848;25.468;2023-07-31T02:32:42;95702.78;;;20.55;100.00
37068;BME280;22982;42.848;25.468;2023-07-31T02:37:45;95700.94;;;20.39;100.00
37068;BME280;22982;42.848;25.468;2023-07-31T02:42:48;95707.28;;;20.14;100.00
37068;BME280;22982;42.848;25.468;2023-07-31T02:47:51;95695.47;;;20.16;100.00
37068;BME280;22982;42.848;25.468;2023-07-31T02:52:55;95704.44;;;20.23;100.00
37068;BME280;22982;42.848;25.468;2023-07-31T02:57:58;95690.31;;;20.06;100.00
37068;BME280;22982;42.848;25.468;2023-07-31T03:03:01;95721.56;;;20.13;100.00
37068;BME280;22982;42.848;25.468;2023-07-31T03:08:04;95720.91;;;20.27;100.00
37068;BME280;22982;42.848;25.468;2023-07-31T03:13:06;95741.56;;;20.17;100.00
37068;BME280;22982;42.848;25.468;2023-07-31T03:18:09;95739.00;;;19.91;100.00
37068;BME280;22982;42.848;25.468;2023-07-31T03:23:12;95744.50;;;19.81;100.00
37068;BME280;22982;42.848;25.468;2023-07-31T03:28:15;95759.47;;;19.90;100.00
37068;BME280;22982;42.848;25.468;2023-07-31T03:33:17;95776.47;;;19.97;100.00
37068;BME280;22982;42.848;25.468;2023-07-31T03:38:21;95774.28;;;19.93;100.00
37068;BME280;22982;42.848;25.468;2023-07-31T03:43:23;95795.59;;;20.01;100.00
37068;BME280;22982;42.848;25.468;2023-07-31T03:48:27;95797.03;;;19.87;100.00
37068;BME280;22982;42.848;25.468;2023-07-31T03:53:30;95800.66;;;19.78;100.00
37068;BME280;22982;42.848;25.468;2023-07-31T03:58:32;95804.59;;;19.65;100.00
37068;BME280;22982;42.848;25.468;2023-07-31T04:03:37;95821.69;;;19.97;100.00
37068;BME280;22982;42.848;25.468;2023-07-31T04:08:39;95812.91;;;20.13;100.00
37068;BME280;22982;42.848;25.468;2023-07-31T04:13:42;95810.44;;;20.28;100.00
37068;BME280;22982;42.848;25.468;2023-07-31T04:18:45;95803.00;;;20.40;100.00
37068;BME280;22982;42.848;25.468;2023-07-31T04:23:47;95797.53;;;20.66;100.00
37068;BME280;22982;42.848;25.468;2023-07-31T04:28:51;95808.13;;;20.50;100.00
37068;BME280;22982;42.848;25.468;2023-07-31T04:33:53;95822.06;;;20.19;100.00
37068;BME280;22982;42.848;25.468;2023-07-31T04:38:56;95833.75;;;20.26;100.00
37068;BME280;22982;42.848;25.468;2023-07-31T04:43:59;95841.00;;;19.99;100.00
37068;BME280;22982;42.848;25.468;2023-07-31T04:49:02;95848.25;;;19.81;100.00
37068;BME280;22982;42.848;25.468;2023-07-31T04:54:04;95845.66;;;19.71;100.00
37068;BME280;22982;42.848;25.468;2023-07-31T04:59:08;95856.22;;;19.81;100.00
37068;BME280;22982;42.848;25.468;2023-07-31T05:04:14;95857.25;;;19.88;100.00
37068;BME280;22982;42.848;25.468;2023-07-31T05:09:17;95853.91;;;19.86;100.00
37068;BME280;22982;42.848;25.468;2023-07-31T05:14:20;95854.94;;;19.93;100.00
37068;BME280;22982;42.848;25.468;2023-07-31T05:19:23;95869.88;;;19.86;100.00
37068;BME280;22982;42.848;25.468;2023-07-31T05:24:26;95869.09;;;19.67;100.00
37068;BME280;22982;42.848;25.468;2023-07-31T05:29:29;95874.75;;;19.64;100.00
37068;BME280;22982;42.848;25.468;2023-07-31T05:34:31;95858.22;;;19.52;100.00
37068;BME280;22982;42.848;25.468;2023-07-31T06:56:16;95890.91;;;20.05;100.00
37068;BME280;22982;42.848;25.468;2023-07-31T07:01:19;95890.63;;;20.17;100.00
37068;BME280;22982;42.848;25.468;2023-07-31T07:06:22;95884.66;;;20.31;100.00
37068;BME280;22982;42.848;25.468;2023-07-31T07:11:25;95882.91;;;20.64;100.00
37068;BME280;22982;42.848;25.468;2023-07-31T07:16:28;95889.06;;;20.65;100.00
37068;BME280;22982;42.848;25.468;2023-07-31T07:21:31;95872.78;;;20.84;100.00
37068;BME280;22982;42.848;25.468;2023-07-31T07:26:34;95886.47;;;20.98;100.00
37068;BME280;22982;42.848;25.468;2023-07-31T07:31:36;95868.44;;;21.08;100.00
37068;BME280;22982;42.848;25.468;2023-07-31T07:36:39;95881.44;;;21.11;100.00
37068;BME280;22982;42.848;25.468;2023-07-31T07:41:42;95883.09;;;21.29;100.00
37068;BME280;22982;42.848;25.468;2023-07-31T07:46:45;95889.25;;;21.37;100.00
37068;BME280;22982;42.848;25.468;2023-07-31T07:51:48;95874.91;;;21.38;100.00
37068;BME280;22982;42.848;25.468;2023-07-31T07:56:51;95882.53;;;21.74;100.00
37068;BME280;22982;42.848;25.468;2023-07-31T08:01:55;95862.81;;;22.31;100.00
37068;BME280;22982;42.848;25.468;2023-07-31T08:06:57;95845.25;;;22.37;100.00
37068;BME280;22982;42.848;25.468;2023-07-31T08:12:00;95825.00;;;22.66;100.00
37068;BME280;22982;42.848;25.468;2023-07-31T08:17:05;95851.00;;;22.95;100.00
37068;BME280;22982;42.848;25.468;2023-07-31T08:22:08;95845.06;;;23.08;100.00
37068;BME280;22982;42.848;25.468;2023-07-31T08:27:11;95856.78;;;23.89;100.00
37068;BME280;22982;42.848;25.468;2023-07-31T08:32:14;95852.63;;;23.87;100.00
37068;BME280;22982;42.848;25.468;2023-07-31T08:37:17;95847.75;;;24.27;100.00
37068;BME280;22982;42.848;25.468;2023-07-31T08:42:20;95836.78;;;25.01;100.00
37068;BME280;22982;42.848;25.468;2023-07-31T08:47:24;95849.81;;;25.05;100.00
37068;BME280;22982;42.848;25.468;2023-07-31T08:52:26;95847.88;;;24.98;100.00
37068;BME280;22982;42.848;25.468;2023-07-31T08:57:30;95854.25;;;25.19;100.00
37068;BME280;22982;42.848;25.468;2023-07-31T09:02:41;95851.56;;;25.19;100.00
37068;BME280;22982;42.848;25.468;2023-07-31T09:07:47;95841.53;;;25.56;100.00
37068;BME280;22982;42.848;25.468;2023-07-31T09:12:54;95839.09;;;25.61;100.00
37068;BME280;22982;42.848;25.468;2023-07-31T09:18:02;95839.69;;;25.28;100.00
37068;BME280;22982;42.848;25.468;2023-07-31T09:23:09;95854.00;;;25.14;100.00
37068;BME280;22982;42.848;25.468;2023-07-31T09:28:13;95843.75;;;24.96;100.00
37068;BME280;22982;42.848;25.468;2023-07-31T09:33:54;95839.72;;;25.35;100.00
37068;BME280;22982;42.848;25.468;2023-07-31T09:39:02;95826.63;;;26.30;86.50
37068;BME280;22982;42.848;25.468;2023-07-31T09:44:05;95819.50;;;28.99;63.91
37068;BME280;22982;42.848;25.468;2023-07-31T09:49:12;95814.91;;;29.32;59.72
37068;BME280;22982;42.848;25.468;2023-07-31T09:54:16;95801.31;;;28.88;57.28
37068;BME280;22982;42.848;25.468;2023-07-31T09:59:20;95808.63;;;29.38;60.79
37068;BME280;22982;42.848;25.468;2023-07-31T10:04:27;95798.50;;;28.76;57.27
37068;BME280;22982;42.848;25.468;2023-07-31T10:09:31;95799.53;;;28.82;59.31
37068;BME280;22982;42.848;25.468;2023-07-31T10:14:35;95792.00;;;29.59;52.55
37068;BME280;22982;42.848;25.468;2023-07-31T10:19:39;95783.34;;;29.07;56.19
37068;BME280;22982;42.848;25.468;2023-07-31T10:24:42;95780.00;;;28.48;58.78
37068;BME280;22982;42.848;25.468;2023-07-31T10:29:47;95787.47;;;28.46;60.66
37068;BME280;22982;42.848;25.468;2023-07-31T10:34:51;95782.66;;;28.87;55.68
37068;BME280;22982;42.848;25.468;2023-07-31T10:40:00;95772.22;;;29.84;53.00
37068;BME280;22982;42.848;25.468;2023-07-31T10:45:05;95786.22;;;29.56;52.40
37068;BME280;22982;42.848;25.468;2023-07-31T10:50:17;95777.69;;;29.34;53.00
37068;BME280;22982;42.848;25.468;2023-07-31T11:00:32;95781.44;;;28.82;53.31
37068;BME280;22982;42.848;25.468;2023-07-31T11:05:45;95771.44;;;28.26;55.85
37068;BME280;22982;42.848;25.468;2023-07-31T11:16:04;95780.31;;;28.65;54.36
37068;BME280;22982;42.848;25.468;2023-07-31T11:21:08;95776.06;;;29.33;52.85
37068;BME280;22982;42.848;25.468;2023-07-31T11:26:11;95761.63;;;30.31;48.22
37068;BME280;22982;42.848;25.468;2023-07-31T11:31:14;95759.00;;;30.55;46.55
37068;BME280;22982;42.848;25.468;2023-07-31T11:36:20;95759.97;;;30.30;45.62
37068;BME280;22982;42.848;25.468;2023-07-31T11:41:23;95747.78;;;31.88;43.02
37068;BME280;22982;42.848;25.468;2023-07-31T11:46:25;95743.81;;;30.84;45.62
37068;BME280;22982;42.848;25.468;2023-07-31T11:51:29;95748.06;;;30.92;45.75
37068;BME280;22982;42.848;25.468;2023-07-31T11:56:31;95739.88;;;30.68;44.89
37068;BME280;22982;42.848;25.468;2023-07-31T12:01:36;95732.81;;;32.26;41.71
37068;BME280;22982;42.848;25.468;2023-07-31T12:06:38;95727.69;;;34.26;38.39
37068;BME280;22982;42.848;25.468;2023-07-31T12:11:46;95748.56;;;31.01;42.04
37068;BME280;22982;42.848;25.468;2023-07-31T12:17:03;95750.25;;;29.37;45.97
37068;BME280;22982;42.848;25.468;2023-07-31T12:22:14;95730.53;;;29.55;46.72
37068;BME280;22982;42.848;25.468;2023-07-31T12:27:17;95724.88;;;28.69;47.64
37068;BME280;22982;42.848;25.468;2023-07-31T12:32:24;95742.47;;;27.56;50.18
37068;BME280;22982;42.848;25.468;2023-07-31T12:37:28;95716.78;;;28.05;49.50
37068;BME280;22982;42.848;25.468;2023-07-31T12:42:31;95730.59;;;28.54;49.70
37068;BME280;22982;42.848;25.468;2023-07-31T12:47:34;95718.06;;;28.03;52.15
37068;BME280;22982;42.848;25.468;2023-07-31T12:52:36;95694.44;;;27.98;51.60
37068;BME280;22982;42.848;25.468;2023-07-31T12:57:39;95713.66;;;27.63;52.03
37068;BME280;22982;42.848;25.468;2023-07-31T13:02:42;95712.00;;;28.39;51.29
37068;BME280;22982;42.848;25.468;2023-07-31T13:07:46;95686.41;;;28.55;52.37
37068;BME280;22982;42.848;25.468;2023-07-31T13:12:52;95694.56;;;28.74;50.76
37068;BME280;22982;42.848;25.468;2023-07-31T13:17:54;95711.06;;;27.95;53.35
37068;BME280;22982;42.848;25.468;2023-07-31T13:22:57;95716.13;;;27.72;54.41
37068;BME280;22982;42.848;25.468;2023-07-31T13:28:00;95700.28;;;27.82;56.35
37068;BME280;22982;42.848;25.468;2023-07-31T13:33:05;95683.09;;;28.21;54.19
37068;BME280;22982;42.848;25.468;2023-07-31T13:38:18;95688.03;;;27.99;54.53
37068;BME280;22982;42.848;25.468;2023-07-31T13:43:21;95688.66;;;27.95;54.36
37068;BME280;22982;42.848;25.468;2023-07-31T13:48:24;95667.50;;;27.98;54.82
37068;BME280;22982;42.848;25.468;2023-07-31T13:53:27;95681.84;;;28.24;55.27
37068;BME280;22982;42.848;25.468;2023-07-31T13:58:30;95673.88;;;28.04;55.49
37068;BME280;22982;42.848;25.468;2023-07-31T14:03:33;95686.38;;;28.30;54.88
37068;BME280;22982;42.848;25.468;2023-07-31T14:08:35;95707.06;;;28.36;53.90
37068;BME280;22982;42.848;25.468;2023-07-31T14:13:38;95709.72;;;27.59;58.09
37068;BME280;22982;42.848;25.468;2023-07-31T14:18:41;95715.81;;;27.15;59.59
37068;BME280;22982;42.848;25.468;2023-07-31T14:23:44;95697.69;;;26.83;61.82
37068;BME280;22982;42.848;25.468;2023-07-31T14:28:47;95701.00;;;26.65;63.65
37068;BME280;22982;42.848;25.468;2023-07-31T14:33:49;95689.78;;;26.48;63.47
37068;BME280;22982;42.848;25.468;2023-07-31T14:38:53;95706.75;;;27.09;64.04
37068;BME280;22982;42.848;25.468;2023-07-31T14:43:55;95674.56;;;27.41;59.87
37068;BME280;22982;42.848;25.468;2023-07-31T14:48:58;95691.75;;;27.46;58.60
37068;BME280;22982;42.848;25.468;2023-07-31T14:54:01;95686.41;;;27.40;58.62
37068;BME280;22982;42.848;25.468;2023-07-31T14:59:03;95698.44;;;27.30;59.97
37068;BME280;22982;42.848;25.468;2023-07-31T15:04:07;95681.50;;;27.03;68.30
37068;BME280;22982;42.848;25.468;2023-07-31T15:09:09;95668.66;;;27.05;60.04
37068;BME280;22982;42.848;25.468;2023-07-31T15:14:12;95668.00;;;27.23;60.65
37068;BME280;22982;42.848;25.468;2023-07-31T15:19:18;95658.72;;;27.06;62.71
37068;BME280;22982;42.848;25.468;2023-07-31T15:24:21;95666.94;;;27.24;61.84
37068;BME280;22982;42.848;25.468;2023-07-31T15:29:24;95677.13;;;27.09;63.99
37068;BME280;22982;42.848;25.468;2023-07-31T15:34:27;95708.00;;;25.71;75.79
37068;BME280;22982;42.848;25.468;2023-07-31T15:39:29;95743.63;;;24.89;90.83
37068;BME280;22982;42.848;25.468;2023-07-31T15:44:33;95730.84;;;24.19;100.00
37068;BME280;22982;42.848;25.468;2023-07-31T15:49:35;95748.44;;;23.11;100.00
37068;BME280;22982;42.848;25.468;2023-07-31T15:54:38;95748.97;;;22.68;100.00
37068;BME280;22982;42.848;25.468;2023-07-31T15:59:41;95754.28;;;22.53;100.00
37068;BME280;22982;42.848;25.468;2023-07-31T16:04:43;95762.59;;;22.35;100.00
37068;BME280;22982;42.848;25.468;2023-07-31T16:09:46;95766.88;;;22.45;100.00
37068;BME280;22982;42.848;25.468;2023-07-31T16:14:49;95736.50;;;22.46;100.00
37068;BME280;22982;42.848;25.468;2023-07-31T16:19:52;95765.88;;;22.84;100.00
37068;BME280;22982;42.848;25.468;2023-07-31T16:24:54;95790.78;;;22.61;100.00
37068;BME280;22982;42.848;25.468;2023-07-31T16:29:57;95780.53;;;22.50;100.00
37068;BME280;22982;42.848;25.468;2023-07-31T16:35:03;95763.38;;;22.13;100.00
37068;BME280;22982;42.848;25.468;2023-07-31T16:40:06;95758.25;;;21.49;100.00
37068;BME280;22982;42.848;25.468;2023-07-31T16:45:10;95782.81;;;21.75;100.00
37068;BME280;22982;42.848;25.468;2023-07-31T16:50:12;95780.53;;;21.95;100.00
37068;BME280;22982;42.848;25.468;2023-07-31T16:55:14;95764.06;;;21.84;100.00
37068;BME280;22982;42.848;25.468;2023-07-31T17:00:18;95780.41;;;21.80;100.00
37068;BME280;22982;42.848;25.468;2023-07-31T17:05:20;95773.94;;;21.75;100.00
37068;BME280;22982;42.848;25.468;2023-07-31T17:10:24;95780.09;;;21.28;100.00
37068;BME280;22982;42.848;25.468;2023-07-31T17:15:26;95779.16;;;21.04;100.00
37068;BME280;22982;42.848;25.468;2023-07-31T17:20:30;95792.69;;;20.94;100.00
37068;BME280;22982;42.848;25.468;2023-07-31T17:25:34;95805.47;;;20.58;100.00
37068;BME280;22982;42.848;25.468;2023-07-31T17:30:37;95830.13;;;20.60;100.00
37068;BME280;22982;42.848;25.468;2023-07-31T17:35:40;95798.31;;;20.42;100.00
37068;BME280;22982;42.848;25.468;2023-07-31T17:40:43;95824.44;;;20.38;100.00
37068;BME280;22982;42.848;25.468;2023-07-31T17:45:46;95818.09;;;20.23;100.00
37068;BME280;22982;42.848;25.468;2023-07-31T17:50:52;95824.03;;;20.08;100.00
37068;BME280;22982;42.848;25.468;2023-07-31T17:55:55;95812.25;;;20.11;100.00
37068;BME280;22982;42.848;25.468;2023-07-31T18:00:58;95836.00;;;20.04;100.00
37068;BME280;22982;42.848;25.468;2023-07-31T18:06:00;95853.31;;;20.08;100.00
37068;BME280;22982;42.848;25.468;2023-07-31T18:11:04;95863.03;;;20.34;100.00
37068;BME280;22982;42.848;25.468;2023-07-31T18:16:07;95859.34;;;20.19;100.00
37068;BME280;22982;42.848;25.468;2023-07-31T18:21:10;95874.25;;;20.03;100.00
37068;BME280;22982;42.848;25.468;2023-07-31T18:26:13;95870.16;;;19.75;100.00
37068;BME280;22982;42.848;25.468;2023-07-31T18:31:15;95900.31;;;19.65;100.00
37068;BME280;22982;42.848;25.468;2023-07-31T18:36:18;95902.16;;;19.65;100.00
37068;BME280;22982;42.848;25.468;2023-07-31T18:41:21;95934.53;;;19.60;100.00
37068;BME280;22982;42.848;25.468;2023-07-31T18:46:24;95932.59;;;19.70;100.00
37068;BME280;22982;42.848;25.468;2023-07-31T18:51:26;95937.78;;;19.46;100.00
37068;BME280;22982;42.848;25.468;2023-07-31T18:56:30;95940.59;;;19.44;100.00
37068;BME280;22982;42.848;25.468;2023-07-31T19:07:40;95956.44;;;19.54;100.00
37068;BME280;22982;42.848;25.468;2023-07-31T19:12:43;95950.16;;;19.55;100.00
37068;BME280;22982;42.848;25.468;2023-07-31T19:17:46;95951.75;;;19.48;100.00
37068;BME280;22982;42.848;25.468;2023-07-31T19:22:48;95950.31;;;19.54;100.00
37068;BME280;22982;42.848;25.468;2023-07-31T19:27:51;95973.22;;;19.55;100.00
37068;BME280;22982;42.848;25.468;2023-07-31T19:32:59;95964.69;;;19.43;100.00
37068;BME280;22982;42.848;25.468;2023-07-31T19:38:01;95966.88;;;19.47;100.00
37068;BME280;22982;42.848;25.468;2023-07-31T19:43:03;95970.00;;;19.69;100.00
37068;BME280;22982;42.848;25.468;2023-07-31T19:48:07;95963.47;;;19.81;100.00
37068;BME280;22982;42.848;25.468;2023-07-31T19:53:10;95947.91;;;19.68;100.00
37068;BME280;22982;42.848;25.468;2023-07-31T19:58:13;95953.84;;;19.62;100.00
37068;BME280;22982;42.848;25.468;2023-07-31T20:03:16;95955.19;;;19.66;100.00
37068;BME280;22982;42.848;25.468;2023-07-31T20:08:18;95951.88;;;19.64;100.00
37068;BME280;22982;42.848;25.468;2023-07-31T20:13:22;95950.31;;;19.54;100.00
37068;BME280;22982;42.848;25.468;2023-07-31T20:18:24;95947.31;;;19.30;100.00
37068;BME280;22982;42.848;25.468;2023-07-31T20:23:26;95951.16;;;19.10;100.00
37068;BME280;22982;42.848;25.468;2023-07-31T20:28:43;95956.22;;;19.21;100.00
37068;BME280;22982;42.848;25.468;2023-07-31T20:33:46;95942.16;;;19.11;100.00
37068;BME280;22982;42.848;25.468;2023-07-31T20:38:49;95957.28;;;19.10;100.00
37068;BME280;22982;42.848;25.468;2023-07-31T20:43:51;95944.63;;;18.86;100.00
37068;BME280;22982;42.848;25.468;2023-07-31T20:48:53;95957.63;;;18.62;100.00
37068;BME280;22982;42.848;25.468;2023-07-31T20:53:56;95960.31;;;18.34;100.00
37068;BME280;22982;42.848;25.468;2023-07-31T20:58:58;95966.63;;;18.51;100.00
37068;BME280;22982;42.848;25.468;2023-07-31T21:04:01;95982.97;;;18.56;100.00
37068;BME280;22982;42.848;25.468;2023-07-31T21:09:03;95980.44;;;18.54;100.00
37068;BME280;22982;42.848;25.468;2023-07-31T21:14:06;95968.28;;;18.34;100.00
37068;BME280;22982;42.848;25.468;2023-07-31T21:19:09;95980.56;;;18.35;100.00
37068;BME280;22982;42.848;25.468;2023-07-31T21:24:12;95976.75;;;18.10;100.00
37068;BME280;22982;42.848;25.468;2023-07-31T21:29:15;95985.38;;;18.22;100.00
37068;BME280;22982;42.848;25.468;2023-07-31T21:34:18;95978.72;;;18.08;100.00
37068;BME280;22982;42.848;25.468;2023-07-31T21:39:20;95969.53;;;18.02;100.00
37068;BME280;22982;42.848;25.468;2023-07-31T21:44:23;95987.72;;;17.77;100.00
37068;BME280;22982;42.848;25.468;2023-07-31T21:49:26;95987.88;;;17.76;100.00
37068;BME280;22982;42.848;25.468;2023-07-31T21:54:30;96003.09;;;17.74;100.00
37068;BME280;22982;42.848;25.468;2023-07-31T21:59:32;96006.59;;;17.74;100.00
37068;BME280;22982;42.848;25.468;2023-07-31T22:04:38;95987.91;;;17.66;100.00
37068;BME280;22982;42.848;25.468;2023-07-31T22:09:43;95990.59;;;17.47;100.00
37068;BME280;22982;42.848;25.468;2023-07-31T22:14:47;95992.81;;;17.41;100.00
37068;BME280;22982;42.848;25.468;2023-07-31T22:19:49;96002.06;;;17.47;100.00
37068;BME280;22982;42.848;25.468;2023-07-31T22:24:52;95997.72;;;17.46;100.00
37068;BME280;22982;42.848;25.468;2023-07-31T22:29:54;95981.13;;;17.44;100.00
37068;BME280;22982;42.848;25.468;2023-07-31T22:34:57;95978.88;;;17.49;100.00
37068;BME280;22982;42.848;25.468;2023-07-31T22:39:59;95977.44;;;17.65;100.00
37068;BME280;22982;42.848;25.468;2023-07-31T22:45:01;95965.19;;;17.64;100.00
37068;BME280;22982;42.848;25.468;2023-07-31T22:50:06;95976.69;;;17.35;100.00
37068;BME280;22982;42.848;25.468;2023-07-31T22:55:08;95960.94;;;17.14;100.00
37068;BME280;22982;42.848;25.468;2023-07-31T23:00:12;95961.34;;;16.99;100.00
37068;BME280;22982;42.848;25.468;2023-07-31T23:05:14;95958.84;;;16.88;100.00
37068;BME280;22982;42.848;25.468;2023-07-31T23:10:17;95956.84;;;16.71;100.00
37068;BME280;22982;42.848;25.468;2023-07-31T23:15:20;95958.25;;;16.55;100.00
37068;BME280;22982;42.848;25.468;2023-07-31T23:20:22;95962.16;;;16.71;100.00
37068;BME280;22982;42.848;25.468;2023-07-31T23:25:25;95966.31;;;16.63;100.00
37068;BME280;22982;42.848;25.468;2023-07-31T23:30:28;95954.34;;;16.50;100.00
37068;BME280;22982;42.848;25.468;2023-07-31T23:35:31;95978.44;;;16.56;100.00
37068;BME280;22982;42.848;25.468;2023-07-31T23:40:34;95954.34;;;16.69;100.00
37068;BME280;22982;42.848;25.468;2023-07-31T23:45:38;95964.16;;;16.88;100.00
37068;BME280;22982;42.848;25.468;2023-07-31T23:50:42;95954.63;;;16.76;100.00
37068;BME280;22982;42.848;25.468;2023-07-31T23:55:45;95947.94;;;16.81;100.00
